createdAt,value
2017-12-10T00:01:42.917Z,75.90
2017-12-10T00:04:10.578Z,75.80
2017-12-10T00:06:38.193Z,75.70
2017-12-10T00:09:06.595Z,76.20
2017-12-10T00:11:34.351Z,76.10
2017-12-10T00:14:02.722Z,75.90
2017-12-10T00:16:31.047Z,76.50
2017-12-10T00:18:59.082Z,76.50
2017-12-10T00:21:27.444Z,75.90
2017-12-10T00:23:55.192Z,76.00
2017-12-10T00:26:22.998Z,75.70
2017-12-10T00:28:50.690Z,75.50
2017-12-10T00:31:19.190Z,75.70
2017-12-10T00:33:46.779Z,75.70
2017-12-10T00:36:15.127Z,75.60
2017-12-10T00:38:42.721Z,75.50
2017-12-10T00:41:11.065Z,75.40
2017-12-10T00:43:38.710Z,75.20
2017-12-10T00:46:06.306Z,75.50
2017-12-10T00:48:33.862Z,75.60
2017-12-10T00:51:01.692Z,77.00
2017-12-10T00:53:29.350Z,76.70
2017-12-10T00:55:56.932Z,76.20
2017-12-10T00:58:24.519Z,77.40
2017-12-10T01:00:52.170Z,76.60
2017-12-10T01:03:19.847Z,75.90
2017-12-10T01:05:47.459Z,76.10
2017-12-10T01:08:15.330Z,75.80
2017-12-10T01:10:43.266Z,75.20
2017-12-10T01:13:11.591Z,76.60
2017-12-10T01:15:39.151Z,76.50
2017-12-10T01:18:06.763Z,75.80
2017-12-10T01:20:35.132Z,76.10
2017-12-10T01:23:03.842Z,76.10
2017-12-10T01:25:31.410Z,76.70
2017-12-10T01:27:59.006Z,76.80
2017-12-10T01:30:26.693Z,76.70
2017-12-10T01:32:54.411Z,76.50
2017-12-10T01:35:22.027Z,76.60
2017-12-10T01:37:49.624Z,75.70
2017-12-10T01:40:17.215Z,77.60
2017-12-10T01:42:44.802Z,76.20
2017-12-10T01:45:13.154Z,77.50
2017-12-10T01:47:40.769Z,77.40
2017-12-10T01:50:08.384Z,75.90
2017-12-10T01:52:35.966Z,75.10
2017-12-10T01:55:03.838Z,75.40
2017-12-10T01:57:32.178Z,76.90
2017-12-10T01:59:59.761Z,76.90
2017-12-10T02:02:27.380Z,76.50
2017-12-10T02:04:55.171Z,76.40
2017-12-10T02:07:22.757Z,76.70
2017-12-10T02:09:50.619Z,75.70
2017-12-10T02:12:18.183Z,76.40
2017-12-10T02:14:45.846Z,76.60
2017-12-10T02:17:13.693Z,76.40
2017-12-10T02:19:41.327Z,76.30
2017-12-10T02:22:09.111Z,76.30
2017-12-10T02:24:37.060Z,76.10
2017-12-10T02:27:04.631Z,75.80
2017-12-10T02:29:32.242Z,75.30
2017-12-10T02:32:00.226Z,76.50
2017-12-10T02:34:27.832Z,76.60
2017-12-10T02:36:56.384Z,75.90
2017-12-10T02:39:24.003Z,75.80
2017-12-10T02:41:51.564Z,76.30
2017-12-10T02:44:19.159Z,75.40
2017-12-10T02:46:46.728Z,76.60
2017-12-10T02:49:14.418Z,76.70
2017-12-10T02:51:41.994Z,76.40
2017-12-10T02:54:09.563Z,77.00
2017-12-10T02:56:37.162Z,76.50
2017-12-10T02:59:05.223Z,79.50
2017-12-10T03:01:32.857Z,77.00
2017-12-10T03:04:00.490Z,77.40
2017-12-10T03:06:28.889Z,77.00
2017-12-10T03:08:56.496Z,78.80
2017-12-10T03:11:24.056Z,77.60
2017-12-10T03:13:51.678Z,78.30
2017-12-10T03:16:19.310Z,77.70
2017-12-10T03:18:46.863Z,78.10
2017-12-10T03:21:14.534Z,77.40
2017-12-10T03:23:42.165Z,76.70
2017-12-10T03:26:09.783Z,75.90
2017-12-10T03:28:37.406Z,76.30
2017-12-10T03:31:05.020Z,75.80
2017-12-10T03:33:32.783Z,76.20
2017-12-10T03:36:01.174Z,75.00
2017-12-10T03:38:29.592Z,75.40
2017-12-10T03:40:57.153Z,75.40
2017-12-10T03:43:24.738Z,75.40
2017-12-10T03:45:52.335Z,75.10
2017-12-10T03:48:19.931Z,73.80
2017-12-10T03:50:47.582Z,76.40
2017-12-10T03:53:15.167Z,74.20
2017-12-10T03:55:42.754Z,74.20
2017-12-10T03:58:10.415Z,74.00
2017-12-10T04:00:38.002Z,74.50
2017-12-10T04:03:05.594Z,75.10
2017-12-10T04:05:33.214Z,72.70
2017-12-10T04:08:00.770Z,73.10
2017-12-10T04:10:28.369Z,74.70
2017-12-10T04:12:55.927Z,73.60
2017-12-10T04:15:23.558Z,73.80
2017-12-10T04:17:51.248Z,75.10
2017-12-10T04:20:18.862Z,73.20
2017-12-10T04:22:46.742Z,73.20
2017-12-10T04:25:14.415Z,73.90
2017-12-10T04:27:42.767Z,74.20
2017-12-10T04:30:10.333Z,74.20
2017-12-10T04:32:38.663Z,73.60
2017-12-10T04:35:06.235Z,72.80
2017-12-10T04:37:33.875Z,71.50
2017-12-10T04:40:01.482Z,70.70
2017-12-10T04:42:29.071Z,71.90
2017-12-10T04:44:57.551Z,71.20
2017-12-10T04:47:25.615Z,71.40
2017-12-10T04:49:53.225Z,70.40
2017-12-10T04:52:21.459Z,70.60
2017-12-10T04:54:49.058Z,69.50
2017-12-10T04:57:16.654Z,70.00
2017-12-10T04:59:44.296Z,68.80
2017-12-10T05:02:11.901Z,71.30
2017-12-10T05:04:39.538Z,70.30
2017-12-10T05:07:07.217Z,69.10
2017-12-10T05:09:35.611Z,69.30
2017-12-10T05:12:03.372Z,69.30
2017-12-10T05:14:31.175Z,67.70
2017-12-10T05:16:58.794Z,70.00
2017-12-10T05:19:26.361Z,66.80
2017-12-10T05:21:53.963Z,68.70
2017-12-10T05:24:21.522Z,69.00
2017-12-10T05:26:49.134Z,69.20
2017-12-10T05:29:17.601Z,69.00
2017-12-10T05:31:45.203Z,67.50
2017-12-10T05:34:12.838Z,67.90
2017-12-10T05:36:40.480Z,67.50
2017-12-10T05:39:08.163Z,67.60
2017-12-10T05:41:36.520Z,66.80
2017-12-10T05:44:04.084Z,66.70
2017-12-10T05:46:31.665Z,67.00
2017-12-10T05:49:00.239Z,67.90
2017-12-10T05:51:28.469Z,67.90
2017-12-10T05:53:56.062Z,66.20
2017-12-10T05:56:23.651Z,66.30
2017-12-10T05:58:52.761Z,67.20
2017-12-10T06:01:20.414Z,67.20
2017-12-10T06:03:48.771Z,66.90
2017-12-10T06:06:16.640Z,66.90
2017-12-10T06:08:44.364Z,66.90
2017-12-10T06:11:12.532Z,66.50
2017-12-10T06:13:40.180Z,66.10
2017-12-10T06:16:07.761Z,65.60
2017-12-10T06:18:35.341Z,65.20
2017-12-10T06:21:02.926Z,67.60
2017-12-10T06:23:30.559Z,68.20
2017-12-10T06:25:58.120Z,66.10
2017-12-10T06:28:25.737Z,66.70
2017-12-10T06:30:53.361Z,66.40
2017-12-10T06:33:21.651Z,66.70
2017-12-10T06:35:49.276Z,68.20
2017-12-10T06:38:16.835Z,67.40
2017-12-10T06:40:44.462Z,67.20
2017-12-10T06:43:12.083Z,66.30
2017-12-10T06:45:39.696Z,69.80
2017-12-10T06:48:07.301Z,69.20
2017-12-10T06:50:34.884Z,68.20
2017-12-10T06:53:02.448Z,67.40
2017-12-10T06:55:30.086Z,66.50
2017-12-10T06:57:57.701Z,66.70
2017-12-10T07:00:28.580Z,65.80
2017-12-10T07:02:56.631Z,67.00
2017-12-10T07:05:24.191Z,69.90
2017-12-10T07:07:51.771Z,67.60
2017-12-10T07:10:20.155Z,66.00
2017-12-10T07:12:47.789Z,66.00
2017-12-10T07:15:15.379Z,69.50
2017-12-10T07:17:43.009Z,67.40
2017-12-10T07:20:10.702Z,66.60
2017-12-10T07:22:38.378Z,66.30
2017-12-10T07:25:05.994Z,66.30
2017-12-10T07:27:33.556Z,65.40
2017-12-10T07:30:01.196Z,64.90
2017-12-10T07:32:28.751Z,64.70
2017-12-10T07:34:57.530Z,64.80
2017-12-10T07:37:25.438Z,65.60
2017-12-10T07:39:53.007Z,65.30
2017-12-10T07:42:20.560Z,65.10
2017-12-10T07:44:48.119Z,64.60
2017-12-10T07:47:15.737Z,63.90
2017-12-10T07:49:43.299Z,64.00
2017-12-10T07:52:10.980Z,64.50
2017-12-10T07:54:38.611Z,64.30
2017-12-10T07:57:06.232Z,63.50
2017-12-10T07:59:33.786Z,64.70
2017-12-10T08:02:01.395Z,63.10
2017-12-10T08:04:29.003Z,64.50
2017-12-10T08:06:56.582Z,63.90
2017-12-10T08:09:24.248Z,65.40
2017-12-10T08:11:51.804Z,64.00
2017-12-10T08:14:20.215Z,64.10
2017-12-10T08:16:47.828Z,64.00
2017-12-10T08:19:15.390Z,63.80
2017-12-10T08:21:43.070Z,64.20
2017-12-10T08:24:10.788Z,64.10
2017-12-10T08:26:46.352Z,63.70
2017-12-10T08:29:13.922Z,66.10
2017-12-10T08:31:41.551Z,63.30
2017-12-10T08:34:09.143Z,62.30
2017-12-10T08:36:36.827Z,62.60
2017-12-10T08:39:04.967Z,63.50
2017-12-10T08:41:32.626Z,62.90
2017-12-10T08:44:00.327Z,64.00
2017-12-10T08:46:27.938Z,63.30
2017-12-10T08:48:55.492Z,63.70
2017-12-10T08:51:23.181Z,64.40
2017-12-10T08:53:50.817Z,61.90
2017-12-10T08:56:18.430Z,61.60
2017-12-10T08:58:46.035Z,62.50
2017-12-10T09:01:14.398Z,61.20
2017-12-10T09:03:42.131Z,61.30
2017-12-10T09:06:09.767Z,64.20
2017-12-10T09:08:37.380Z,60.40
2017-12-10T09:11:05.120Z,62.40
2017-12-10T09:13:32.679Z,61.80
2017-12-10T09:16:00.249Z,60.10
2017-12-10T09:18:28.014Z,61.00
2017-12-10T09:20:55.582Z,61.10
2017-12-10T09:23:24.020Z,60.20
2017-12-10T09:25:51.586Z,60.00
2017-12-10T09:28:19.171Z,59.10
2017-12-10T09:30:46.793Z,60.00
2017-12-10T09:33:14.412Z,58.40
2017-12-10T09:35:42.797Z,57.60
2017-12-10T09:38:11.214Z,58.40
2017-12-10T09:40:38.898Z,58.20
2017-12-10T09:43:06.443Z,58.20
2017-12-10T09:45:34.039Z,57.20
2017-12-10T09:48:01.588Z,58.00
2017-12-10T09:50:29.194Z,58.20
2017-12-10T09:52:56.911Z,56.70
2017-12-10T09:55:24.484Z,56.60
2017-12-10T09:57:52.236Z,57.90
2017-12-10T10:00:20.511Z,57.80
2017-12-10T10:02:48.087Z,57.70
2017-12-10T10:05:15.696Z,57.80
2017-12-10T10:07:43.375Z,59.50
2017-12-10T10:10:11.226Z,59.00
2017-12-10T10:12:38.818Z,58.80
2017-12-10T10:15:06.415Z,62.00
2017-12-10T10:20:08.024Z,59.10
2017-12-10T10:22:35.576Z,59.10
2017-12-10T10:25:03.203Z,58.90
2017-12-10T10:27:30.909Z,59.40
2017-12-10T10:29:58.468Z,59.40
2017-12-10T10:32:26.035Z,60.00
2017-12-10T10:34:53.698Z,60.20
2017-12-10T10:37:21.334Z,59.30
2017-12-10T10:39:49.049Z,58.00
2017-12-10T10:42:16.673Z,58.70
2017-12-10T10:44:44.241Z,58.10
2017-12-10T10:47:12.210Z,58.50
2017-12-10T10:49:39.760Z,58.00
2017-12-10T10:52:08.469Z,59.50
2017-12-10T10:54:36.070Z,57.30
2017-12-10T10:57:03.759Z,58.00
2017-12-10T10:59:31.520Z,57.50
2017-12-10T11:01:59.070Z,57.50
2017-12-10T11:04:27.436Z,57.50
2017-12-10T11:06:54.991Z,57.50
2017-12-10T11:09:22.586Z,59.60
2017-12-10T11:11:50.131Z,57.90
2017-12-10T11:14:18.511Z,57.20
2017-12-10T11:16:46.835Z,56.70
2017-12-10T11:19:14.464Z,56.70
2017-12-10T11:21:42.670Z,57.10
2017-12-10T11:24:10.276Z,56.90
2017-12-10T11:26:37.844Z,58.00
2017-12-10T11:29:05.421Z,57.90
2017-12-10T11:31:33.019Z,59.80
2017-12-10T11:34:00.762Z,57.80
2017-12-10T11:36:28.375Z,58.50
2017-12-10T11:38:56.856Z,59.20
2017-12-10T11:41:25.471Z,57.20
2017-12-10T11:43:53.082Z,57.60
2017-12-10T11:46:20.921Z,58.50
2017-12-10T11:48:48.585Z,57.90
2017-12-10T11:51:16.404Z,57.90
2017-12-10T11:53:44.088Z,58.20
2017-12-10T11:56:11.726Z,58.60
2017-12-10T11:58:39.337Z,59.10
2017-12-10T12:01:07.129Z,57.90
2017-12-10T12:03:36.294Z,56.60
2017-12-10T12:06:03.906Z,56.60
2017-12-10T12:08:31.568Z,57.10
2017-12-10T12:10:59.236Z,56.70
2017-12-10T12:13:26.835Z,55.70
2017-12-10T12:15:54.400Z,55.40
2017-12-10T12:18:22.130Z,56.00
2017-12-10T12:20:49.745Z,55.40
2017-12-10T12:23:17.326Z,55.50
2017-12-10T12:25:44.944Z,55.40
2017-12-10T12:28:12.703Z,55.50
2017-12-10T12:30:40.273Z,55.60
2017-12-10T12:33:07.827Z,56.00
2017-12-10T12:35:35.386Z,56.00
2017-12-10T12:38:03.031Z,56.20
2017-12-10T12:40:30.667Z,57.50
2017-12-10T12:42:59.569Z,57.30
2017-12-10T12:45:27.897Z,56.70
2017-12-10T12:47:55.451Z,56.70
2017-12-10T12:50:23.036Z,56.50
2017-12-10T12:52:51.424Z,57.20
2017-12-10T12:55:18.988Z,57.10
2017-12-10T12:57:46.585Z,57.00
2017-12-10T13:00:14.134Z,56.70
2017-12-10T13:02:41.830Z,56.30
2017-12-10T13:05:09.427Z,56.00
2017-12-10T13:07:37.027Z,56.00
2017-12-10T13:10:04.572Z,56.20
2017-12-10T13:12:32.930Z,56.40
2017-12-10T13:15:01.287Z,57.60
2017-12-10T13:17:28.891Z,57.60
2017-12-10T13:19:56.532Z,56.20
2017-12-10T13:22:24.839Z,56.80
2017-12-10T13:24:53.291Z,56.00
2017-12-10T13:27:21.011Z,56.00
2017-12-10T13:29:48.591Z,56.60
2017-12-10T13:32:16.213Z,55.80
2017-12-10T13:34:43.808Z,56.10
2017-12-10T13:37:11.367Z,56.20
2017-12-10T13:39:39.060Z,56.70
2017-12-10T13:42:06.692Z,56.80
2017-12-10T13:44:34.604Z,58.20
2017-12-10T13:47:02.231Z,56.50
2017-12-10T13:49:29.842Z,56.60
2017-12-10T13:51:57.439Z,56.50
2017-12-10T13:54:25.012Z,56.00
2017-12-10T13:56:52.716Z,56.70
2017-12-10T13:59:21.071Z,56.10
2017-12-10T14:01:48.859Z,56.10
2017-12-10T14:04:16.455Z,55.70
2017-12-10T14:06:44.056Z,55.90
2017-12-10T14:09:11.698Z,56.00
2017-12-10T14:11:39.745Z,56.40
2017-12-10T14:14:07.556Z,56.30
2017-12-10T14:16:36.628Z,56.30
2017-12-10T14:19:04.330Z,56.30
2017-12-10T14:21:32.063Z,56.70
2017-12-10T14:23:59.605Z,56.90
2017-12-10T14:26:27.358Z,57.00
2017-12-10T14:28:54.978Z,57.10
2017-12-10T14:31:23.343Z,56.90
2017-12-10T14:33:50.927Z,56.70
2017-12-10T14:36:18.561Z,56.80
2017-12-10T14:38:46.128Z,57.20
2017-12-10T14:41:13.739Z,56.90
2017-12-10T14:43:41.310Z,57.10
2017-12-10T14:46:09.741Z,56.90
2017-12-10T14:48:37.300Z,56.90
2017-12-10T14:51:05.630Z,57.30
2017-12-10T14:53:33.522Z,56.90
2017-12-10T14:56:01.118Z,57.40
2017-12-10T14:58:29.438Z,56.80
2017-12-10T15:00:57.035Z,56.80
2017-12-10T15:03:25.466Z,57.10
2017-12-10T15:05:53.183Z,57.20
2017-12-10T15:08:20.769Z,57.60
2017-12-10T15:10:48.386Z,57.00
2017-12-10T15:13:15.956Z,56.80
2017-12-10T15:15:43.526Z,57.40
2017-12-10T15:18:12.007Z,57.10
2017-12-10T15:20:39.653Z,57.10
2017-12-10T15:23:07.337Z,57.50
2017-12-10T15:25:35.150Z,56.70
2017-12-10T15:28:02.746Z,56.80
2017-12-10T15:30:30.364Z,56.70
2017-12-10T15:32:57.969Z,56.40
2017-12-10T15:35:27.057Z,56.60
2017-12-10T15:37:55.444Z,56.10
2017-12-10T15:40:23.028Z,56.00
2017-12-10T15:42:50.629Z,56.10
2017-12-10T15:45:18.283Z,56.30
2017-12-10T15:47:46.151Z,56.00
2017-12-10T15:50:13.813Z,56.30
2017-12-10T15:52:41.420Z,56.00
2017-12-10T15:55:10.776Z,56.10
2017-12-10T15:57:38.375Z,56.10
2017-12-10T16:00:05.979Z,56.00
2017-12-10T16:02:33.722Z,55.80
2017-12-10T16:05:02.043Z,55.70
2017-12-10T16:07:29.636Z,55.60
2017-12-10T16:09:57.786Z,55.50
2017-12-10T16:12:25.394Z,55.90
2017-12-10T16:14:53.768Z,55.60
2017-12-10T16:17:21.380Z,55.60
2017-12-10T16:19:48.973Z,55.40
2017-12-10T16:22:16.558Z,55.30
2017-12-10T16:24:44.212Z,56.00
2017-12-10T16:27:12.558Z,55.80
2017-12-10T16:29:40.132Z,55.70
2017-12-10T16:32:07.727Z,55.60
2017-12-10T16:34:36.055Z,55.80
2017-12-10T16:37:03.646Z,55.80
2017-12-10T16:39:31.205Z,55.40
2017-12-10T16:41:58.819Z,55.20
2017-12-10T16:44:26.394Z,55.50
2017-12-10T16:46:53.989Z,57.30
2017-12-10T16:49:21.587Z,59.20
2017-12-10T16:51:49.143Z,65.20
2017-12-10T16:54:16.747Z,69.20
2017-12-10T16:56:44.299Z,69.60
2017-12-10T16:59:11.867Z,74.50
2017-12-10T17:01:39.442Z,75.40
2017-12-10T17:04:07.000Z,77.30
2017-12-10T17:06:34.573Z,77.60
2017-12-10T17:09:02.282Z,81.60
2017-12-10T17:11:30.199Z,80.00
2017-12-10T17:13:57.915Z,80.50
2017-12-10T17:16:25.629Z,81.90
2017-12-10T17:18:53.240Z,81.40
2017-12-10T17:21:21.981Z,82.80
2017-12-10T17:23:49.733Z,83.10
2017-12-10T17:26:17.307Z,83.80
2017-12-10T17:28:45.635Z,84.70
2017-12-10T17:31:13.235Z,84.70
2017-12-10T17:33:40.889Z,84.20
2017-12-10T17:36:08.919Z,84.50
2017-12-10T17:38:36.521Z,83.30
2017-12-10T17:41:04.098Z,84.20
2017-12-10T17:43:31.639Z,84.60
2017-12-10T17:45:59.274Z,83.60
2017-12-10T17:48:26.881Z,83.80
2017-12-10T17:50:55.243Z,84.90
2017-12-10T17:53:23.627Z,84.80
2017-12-10T17:55:51.187Z,84.80
2017-12-10T17:58:18.837Z,85.20
2017-12-10T18:00:46.607Z,84.10
2017-12-10T18:03:14.275Z,85.60
2017-12-10T18:05:41.839Z,85.20
2017-12-10T18:08:09.439Z,85.70
2017-12-10T18:10:37.014Z,86.20
2017-12-10T18:13:05.087Z,87.10
2017-12-10T18:15:32.794Z,86.40
2017-12-10T18:18:00.390Z,87.10
2017-12-10T18:20:27.994Z,86.50
2017-12-10T18:22:55.596Z,84.90
2017-12-10T18:25:23.935Z,85.50
2017-12-10T18:27:51.651Z,85.50
2017-12-10T18:30:19.271Z,85.30
2017-12-10T18:32:46.883Z,85.30
2017-12-10T18:35:14.978Z,85.70
2017-12-10T18:37:42.733Z,85.70
2017-12-10T18:40:10.427Z,85.20
2017-12-10T18:42:38.195Z,85.30
2017-12-10T18:45:05.862Z,85.00
2017-12-10T18:47:33.482Z,85.10
2017-12-10T18:50:01.052Z,84.90
2017-12-10T18:52:28.615Z,84.80
2017-12-10T18:54:56.257Z,85.50
2017-12-10T18:57:23.886Z,85.10
2017-12-10T18:59:51.474Z,85.20
2017-12-10T19:02:19.056Z,84.40
2017-12-10T19:04:48.282Z,84.50
2017-12-10T19:07:15.965Z,84.20
2017-12-10T19:09:43.515Z,84.50
2017-12-10T19:12:11.179Z,84.20
2017-12-10T19:14:39.689Z,85.00
2017-12-10T19:17:07.568Z,84.60
2017-12-10T19:19:35.488Z,84.00
2017-12-10T19:22:03.082Z,84.20
2017-12-10T19:24:30.778Z,85.10
2017-12-10T19:26:58.407Z,83.60
2017-12-10T19:29:26.747Z,83.10
2017-12-10T19:31:54.362Z,83.10
2017-12-10T19:34:21.974Z,84.40
2017-12-10T19:36:50.897Z,84.20
2017-12-10T19:39:19.460Z,83.80
2017-12-10T19:41:47.306Z,83.70
2017-12-10T19:44:14.961Z,84.10
2017-12-10T19:46:42.519Z,84.20
2017-12-10T19:49:10.163Z,84.50
2017-12-10T19:51:37.850Z,84.80
2017-12-10T19:54:05.458Z,84.90
2017-12-10T19:56:33.007Z,85.20
2017-12-10T19:59:01.347Z,85.70
2017-12-10T20:01:29.032Z,85.70
2017-12-10T20:03:59.569Z,86.40
2017-12-10T20:06:27.299Z,85.80
2017-12-10T20:08:54.937Z,85.50
2017-12-10T20:11:22.563Z,86.00
2017-12-10T20:13:50.905Z,86.10
2017-12-10T20:16:18.463Z,86.50
2017-12-10T20:18:46.128Z,86.50
2017-12-10T20:21:13.695Z,87.10
2017-12-10T20:23:41.555Z,87.10
2017-12-10T20:26:12.161Z,87.00
2017-12-10T20:28:39.782Z,86.90
2017-12-10T20:31:07.412Z,87.90
2017-12-10T20:33:35.092Z,87.70
2017-12-10T20:36:02.828Z,87.90
2017-12-10T20:38:30.409Z,87.50
2017-12-10T20:40:58.029Z,88.10
2017-12-10T20:43:25.691Z,87.70
2017-12-10T20:45:53.263Z,88.10
2017-12-10T20:48:20.909Z,88.60
2017-12-10T20:50:49.659Z,89.30
2017-12-10T20:53:17.278Z,89.30
2017-12-10T20:55:44.886Z,89.40
2017-12-10T20:58:12.490Z,89.80
2017-12-10T21:00:40.147Z,89.20
2017-12-10T21:03:08.817Z,89.90
2017-12-10T21:05:37.332Z,89.70
2017-12-10T21:08:04.906Z,90.10
2017-12-10T21:10:32.520Z,89.90
2017-12-10T21:13:00.128Z,89.90
2017-12-10T21:15:27.733Z,89.70
2017-12-10T21:17:55.386Z,90.10
2017-12-10T21:20:22.971Z,89.80
2017-12-10T21:22:51.188Z,90.10
2017-12-10T21:25:18.789Z,89.60
2017-12-10T21:27:46.490Z,90.20
2017-12-10T21:30:14.109Z,90.40
2017-12-10T21:32:41.697Z,90.60
2017-12-10T21:35:09.341Z,90.40
2017-12-10T21:37:36.942Z,90.60
2017-12-10T21:40:04.586Z,90.80
2017-12-10T21:42:32.158Z,90.70
2017-12-10T21:44:59.770Z,90.70
2017-12-10T21:47:27.472Z,90.60
2017-12-10T21:49:55.331Z,90.90
2017-12-10T21:52:22.911Z,90.70
2017-12-10T21:54:50.539Z,90.50
2017-12-10T21:57:18.130Z,90.70
2017-12-10T21:59:45.700Z,90.70
2017-12-10T22:02:13.323Z,90.50
2017-12-10T22:04:40.972Z,90.50
2017-12-10T22:07:08.624Z,90.40
2017-12-10T22:09:36.970Z,90.70
2017-12-10T22:12:04.583Z,90.70
2017-12-10T22:14:32.820Z,90.90
2017-12-10T22:17:01.487Z,90.80
2017-12-10T22:19:29.087Z,90.80
2017-12-10T22:21:57.208Z,90.80
2017-12-10T22:24:24.891Z,90.90
2017-12-10T22:26:52.704Z,90.90
2017-12-10T22:29:20.266Z,90.90
2017-12-10T22:31:47.871Z,90.80
2017-12-10T22:34:15.495Z,91.00
2017-12-10T22:36:43.051Z,90.90
2017-12-10T22:39:10.641Z,90.70
2017-12-10T22:41:38.196Z,90.70
2017-12-10T22:44:05.926Z,90.70
2017-12-10T22:46:33.529Z,90.90
2017-12-10T22:49:01.160Z,90.80
2017-12-10T22:51:28.780Z,91.00
2017-12-10T22:53:56.400Z,91.00
2017-12-10T22:56:23.970Z,91.10
2017-12-10T22:58:51.563Z,90.90
2017-12-10T23:01:19.283Z,90.70
2017-12-10T23:03:47.345Z,91.00
2017-12-10T23:06:15.075Z,91.10
2017-12-10T23:08:43.165Z,91.10
2017-12-10T23:11:11.608Z,91.00
2017-12-10T23:13:51.673Z,91.00
2017-12-10T23:16:25.112Z,91.10
2017-12-10T23:18:52.698Z,91.10
2017-12-10T23:21:20.337Z,91.10
2017-12-10T23:23:47.972Z,91.20
2017-12-10T23:26:15.602Z,91.20
2017-12-10T23:28:43.195Z,91.20
2017-12-10T23:31:10.776Z,91.10
2017-12-10T23:33:38.381Z,91.10
2017-12-10T23:36:06.063Z,91.10
2017-12-10T23:38:33.629Z,91.10
2017-12-10T23:41:01.238Z,91.10
2017-12-10T23:43:29.006Z,91.20
2017-12-10T23:45:57.052Z,91.30
2017-12-10T23:48:25.149Z,91.30
2017-12-10T23:50:54.172Z,91.20
2017-12-10T23:53:23.064Z,91.40
2017-12-10T23:55:50.697Z,91.20
2017-12-10T23:58:18.263Z,91.20
